Joe Foss Field Airport
KFSD : now visible

Airfield :











YOU CAN JOIN US ON...

 
LOGIN :

Register | Disclaimer

   EN    FR    IT 

 









Legend :    VFR   Marginal VFR   IFR   Intensive IFR   Very Intensive IFR
Visi :
Ceiling :
>= 8 km
>= 3000ft
5 to 8 km
1000 to 3000 ft
1500m to 5 km
500 to 1000 ft
800 to 1500m
200 to 500 ft
< 800m
< 200 ft
Symbols :   Thunderstorms  Fog  Heavy snow  Heavy precipitations  Wind > 20 kt






- Airport Elevation : 1429 ft
- IATA code : FSD


KFSD - Joe Foss Field

CURRENT METAR :
  • 301656Z 15008KT 10SM CLR 05/M02 A3019 RMK AO2 SLP237 T00501017

EXPIRED METARs :
  • 301556Z 16007KT 10SM CLR 03/M02 A3020 RMK AO2 SLP239 T00331022
  • 301456Z 14009KT 10SM CLR 01/M03 A3019 RMK AO2 SLP237 T00111028 53018

TAF KFSD
Valid from the 30 at 12:00 until the 31 at 12:00 UTC


301120Z 3012/3112 12004KT P6SM FEW250
FM302000 15007KT P6SM SCT120
FM310400 16011G16KT P6SM SKC
FM310600 17016G22KT P6SM FEW250 WS020/19040KT
KZMP FIR / North America



MET'MAP, your aeronautical weather chart ! - Copyright ORBIFLY December 2007 - Disclaimer

ORBIFLY MET'MAP TEAM :

Programming & Development : Alexandra Zaïnal
Concept & original design : Baudouin d'Aumeries
Assistance for programming : Marc-Olivier Méhu
Technical & hardware support : Manuel Goepfert

Contact : metmap@orbifly.com




SOURCES & CREDITS :

   NOAA       Earth
Advisory